createdAt,value
2017-11-06T00:01:54.785Z,100306.36
2017-11-06T00:04:24.767Z,100311.40
2017-11-06T00:06:53.991Z,100308.66
2017-11-06T00:09:23.989Z,100317.34
2017-11-06T00:11:53.221Z,100318.69
2017-11-06T00:14:22.446Z,100315.38
2017-11-06T00:16:51.647Z,100322.42
2017-11-06T00:19:20.879Z,100322.81
2017-11-06T00:21:50.083Z,100327.27
2017-11-06T00:24:19.361Z,100329.02
2017-11-06T00:26:48.567Z,100336.01
2017-11-06T00:29:17.772Z,100330.91
2017-11-06T00:31:47.142Z,100334.55
2017-11-06T00:34:16.667Z,100349.72
2017-11-06T00:36:45.871Z,100349.31
2017-11-06T00:39:15.055Z,100354.96
2017-11-06T00:41:44.305Z,100358.34
2017-11-06T00:44:13.478Z,100359.69
2017-11-06T00:46:43.481Z,100356.81
2017-11-06T00:49:12.755Z,100355.25
2017-11-06T00:51:42.036Z,100358.23
2017-11-06T00:54:11.252Z,100359.59
2017-11-06T00:56:40.520Z,100361.48
2017-11-06T00:59:09.796Z,100365.64
2017-11-06T01:01:38.987Z,100367.14
2017-11-06T01:04:08.176Z,100372.67
2017-11-06T01:06:37.381Z,100374.97
2017-11-06T01:09:07.375Z,100380.23
2017-11-06T01:11:36.611Z,100381.30
2017-11-06T01:14:06.629Z,100381.41
2017-11-06T01:16:36.595Z,100379.00
2017-11-06T01:19:05.811Z,100386.94
2017-11-06T01:21:35.023Z,100389.37
2017-11-06T01:24:04.991Z,100393.94
2017-11-06T01:26:34.221Z,100400.45
2017-11-06T01:29:03.415Z,100402.78
2017-11-06T01:31:32.654Z,100402.16
2017-11-06T01:34:01.868Z,100407.84
2017-11-06T01:36:31.058Z,100407.66
2017-11-06T01:39:00.276Z,100409.70
2017-11-06T01:41:29.497Z,100411.59
2017-11-06T01:43:58.699Z,100407.01
2017-11-06T01:46:27.934Z,100411.85
2017-11-06T01:48:57.142Z,100420.94
2017-11-06T01:51:26.344Z,100414.32
2017-11-06T01:53:55.581Z,100420.11
2017-11-06T01:56:24.791Z,100421.48
2017-11-06T01:58:54.031Z,100420.66
2017-11-06T02:01:23.249Z,100419.70
2017-11-06T02:03:52.437Z,100415.92
2017-11-06T02:06:21.636Z,100424.04
2017-11-06T02:08:50.831Z,100419.16
2017-11-06T02:11:20.055Z,100421.92
2017-11-06T02:13:49.295Z,100425.38
2017-11-06T02:16:19.300Z,100421.86
2017-11-06T02:18:48.515Z,100423.61
2017-11-06T02:21:18.503Z,100429.69
2017-11-06T02:23:47.685Z,100431.61
2017-11-06T02:26:16.946Z,100422.55
2017-11-06T02:28:46.254Z,100429.45
2017-11-06T02:31:15.457Z,100430.95
2017-11-06T02:33:44.666Z,100439.86
2017-11-06T02:36:13.870Z,100436.94
2017-11-06T02:38:43.072Z,100439.34
2017-11-06T02:41:12.291Z,100439.89
2017-11-06T02:43:41.486Z,100441.27
2017-11-06T02:46:11.513Z,100448.52
2017-11-06T02:48:40.920Z,100449.58
2017-11-06T02:51:11.001Z,100455.25
2017-11-06T02:53:40.224Z,100456.85
2017-11-06T02:56:10.201Z,100459.69
2017-11-06T02:58:39.427Z,100467.89
2017-11-06T03:01:08.636Z,100471.09
2017-11-06T03:03:38.627Z,100473.48
2017-11-06T03:06:07.844Z,100477.06
2017-11-06T03:08:37.849Z,100481.22
2017-11-06T03:11:07.063Z,100495.06
2017-11-06T03:13:36.262Z,100498.02
2017-11-06T03:16:05.460Z,100500.86
2017-11-06T03:18:35.439Z,100505.95
2017-11-06T03:21:05.431Z,100497.36
2017-11-06T03:23:34.733Z,100494.34
2017-11-06T03:26:03.949Z,100505.64
2017-11-06T03:28:33.153Z,100506.59
2017-11-06T03:31:02.371Z,100512.75
2017-11-06T03:33:31.612Z,100510.17
2017-11-06T03:36:00.906Z,100520.63
2017-11-06T03:38:30.115Z,100517.88
2017-11-06T03:40:59.344Z,100527.59
2017-11-06T03:43:28.556Z,100528.80
2017-11-06T03:45:57.746Z,100536.09
2017-11-06T03:48:27.018Z,100539.30
2017-11-06T03:50:56.219Z,100534.20
2017-11-06T03:53:25.444Z,100545.38
2017-11-06T03:55:54.660Z,100549.55
2017-11-06T03:58:24.717Z,100552.95
2017-11-06T04:00:54.186Z,100554.70
2017-11-06T04:03:24.167Z,100554.28
2017-11-06T04:05:53.516Z,100553.73
2017-11-06T04:08:23.475Z,100563.17
2017-11-06T04:10:52.741Z,100570.83
2017-11-06T04:13:21.969Z,100574.16
2017-11-06T04:15:51.248Z,100571.97
2017-11-06T04:18:20.459Z,100566.69
2017-11-06T04:20:49.671Z,100576.67
2017-11-06T04:23:18.983Z,100581.52
2017-11-06T04:25:48.192Z,100585.67
2017-11-06T04:28:17.439Z,100582.33
2017-11-06T04:30:46.650Z,100584.59
2017-11-06T04:33:15.864Z,100583.35
2017-11-06T04:35:45.068Z,100594.69
2017-11-06T04:38:14.275Z,100594.66
2017-11-06T04:40:43.524Z,100592.62
2017-11-06T04:43:15.159Z,100588.97
2017-11-06T04:45:44.428Z,100588.53
2017-11-06T04:48:13.636Z,100598.38
2017-11-06T04:50:42.873Z,100591.60
2017-11-06T04:53:12.087Z,100589.41
2017-11-06T04:55:41.316Z,100602.91
2017-11-06T04:58:11.311Z,100602.54
2017-11-06T05:00:42.611Z,100603.92
2017-11-06T05:03:14.737Z,100612.45
2017-11-06T05:05:43.956Z,100611.50
2017-11-06T05:08:14.043Z,100611.39
2017-11-06T05:10:43.269Z,100606.94
2017-11-06T05:13:13.276Z,100606.71
2017-11-06T05:15:42.493Z,100604.99
2017-11-06T05:18:12.000Z,100602.75
2017-11-06T05:20:41.210Z,100612.16
2017-11-06T05:23:10.461Z,100614.06
2017-11-06T05:25:39.660Z,100621.20
2017-11-06T05:28:08.880Z,100636.41
2017-11-06T05:30:38.877Z,100631.45
2017-11-06T05:33:08.104Z,100642.38
2017-11-06T05:35:38.279Z,100643.75
2017-11-06T05:38:07.491Z,100657.12
2017-11-06T05:40:36.701Z,100665.89
2017-11-06T05:43:05.928Z,100667.36
2017-11-06T05:45:35.160Z,100684.37
2017-11-06T05:48:04.374Z,100676.52
2017-11-06T05:50:33.566Z,100686.40
2017-11-06T05:53:02.788Z,100692.06
2017-11-06T05:55:31.997Z,100694.19
2017-11-06T05:58:01.999Z,100694.73
2017-11-06T06:00:31.248Z,100702.28
2017-11-06T06:03:00.463Z,100703.48
2017-11-06T06:05:29.667Z,100692.86
2017-11-06T06:07:59.665Z,100705.70
2017-11-06T06:10:28.879Z,100707.56
2017-11-06T06:12:58.103Z,100705.37
2017-11-06T06:15:27.672Z,100717.48
2017-11-06T06:17:56.884Z,100716.40
2017-11-06T06:20:26.935Z,100716.98
2017-11-06T06:22:56.928Z,100718.72
2017-11-06T06:25:26.155Z,100728.94
2017-11-06T06:27:56.135Z,100730.55
2017-11-06T06:30:25.352Z,100737.84
2017-11-06T06:32:54.560Z,100743.61
2017-11-06T06:35:24.563Z,100747.09
2017-11-06T06:37:53.768Z,100747.07
2017-11-06T06:40:23.770Z,100761.09
2017-11-06T06:42:53.003Z,100758.79
2017-11-06T06:45:22.561Z,100767.80
2017-11-06T06:47:51.748Z,100771.72
2017-11-06T06:50:21.752Z,100769.25
2017-11-06T06:52:50.989Z,100769.61
2017-11-06T06:55:20.239Z,100773.20
2017-11-06T06:57:49.450Z,100775.50
2017-11-06T07:00:18.684Z,100773.77
2017-11-06T07:02:47.892Z,100777.02
2017-11-06T07:05:17.923Z,100784.02
2017-11-06T07:07:47.129Z,100791.16
2017-11-06T07:10:16.447Z,100788.83
2017-11-06T07:12:45.664Z,100801.78
2017-11-06T07:15:14.924Z,100799.17
2017-11-06T07:17:44.885Z,100797.14
2017-11-06T07:20:14.106Z,100799.41
2017-11-06T07:22:43.331Z,100799.78
2017-11-06T07:25:12.645Z,100805.55
2017-11-06T07:27:42.597Z,100813.26
2017-11-06T07:30:11.838Z,100820.52
2017-11-06T07:32:41.808Z,100819.29
2017-11-06T07:35:11.828Z,100829.80
2017-11-06T07:37:41.109Z,100836.16
2017-11-06T07:40:10.327Z,100835.20
2017-11-06T07:42:39.526Z,100847.48
2017-11-06T07:45:08.728Z,100849.34
2017-11-06T07:47:37.944Z,100859.38
2017-11-06T07:50:07.935Z,100861.16
2017-11-06T07:52:37.153Z,100863.26
2017-11-06T07:55:06.361Z,100863.38
2017-11-06T07:57:36.341Z,100871.08
2017-11-06T08:00:05.548Z,100867.42
2017-11-06T08:02:34.764Z,100875.91
2017-11-06T08:05:03.956Z,100869.55
2017-11-06T08:07:33.918Z,100875.91
2017-11-06T08:10:03.170Z,100869.95
2017-11-06T08:12:32.399Z,100861.59
2017-11-06T08:15:01.636Z,100869.15
2017-11-06T08:17:30.948Z,100868.69
2017-11-06T08:20:00.170Z,100865.29
2017-11-06T08:22:29.408Z,100867.09
2017-11-06T08:24:58.623Z,100876.27
2017-11-06T08:27:27.853Z,100880.20
2017-11-06T08:29:57.054Z,100882.98
2017-11-06T08:32:26.298Z,100880.06
2017-11-06T08:34:56.261Z,100878.97
2017-11-06T08:37:25.528Z,100890.11
2017-11-06T08:39:54.724Z,100888.87
2017-11-06T08:42:24.266Z,100885.66
2017-11-06T08:44:53.491Z,100891.97
2017-11-06T08:47:22.727Z,100900.27
2017-11-06T08:49:51.940Z,100899.95
2017-11-06T08:52:21.210Z,100904.33
2017-11-06T08:54:51.187Z,100904.44
2017-11-06T08:57:21.167Z,100905.06
2017-11-06T08:59:50.397Z,100898.41
2017-11-06T09:02:19.648Z,100909.70
2017-11-06T09:04:48.968Z,100908.09
2017-11-06T09:07:18.177Z,100906.48
2017-11-06T09:09:47.443Z,100925.04
2017-11-06T09:12:16.700Z,100926.23
2017-11-06T09:14:46.688Z,100930.93
2017-11-06T09:17:15.920Z,100934.98
2017-11-06T09:19:45.141Z,100937.09
2017-11-06T09:22:14.444Z,100948.17
2017-11-06T09:24:43.679Z,100943.62
2017-11-06T09:27:12.962Z,100949.36
2017-11-06T09:29:42.200Z,100951.91
2017-11-06T09:32:12.185Z,100952.56
2017-11-06T09:34:41.427Z,100939.59
2017-11-06T09:37:10.631Z,100955.68
2017-11-06T09:39:40.197Z,100956.39
2017-11-06T09:42:09.405Z,100959.26
2017-11-06T09:44:38.601Z,100954.89
2017-11-06T09:47:07.873Z,100964.16
2017-11-06T09:49:37.145Z,100971.34
2017-11-06T09:52:06.448Z,100968.63
2017-11-06T09:54:36.274Z,100979.75
2017-11-06T09:57:05.518Z,100978.45
2017-11-06T09:59:35.496Z,100979.92
2017-11-06T10:02:04.721Z,100979.80
2017-11-06T10:04:34.180Z,100984.56
2017-11-06T10:07:03.459Z,100986.84
2017-11-06T10:09:32.672Z,100981.75
2017-11-06T10:12:02.156Z,100984.86
2017-11-06T10:14:31.378Z,100987.59
2017-11-06T10:17:00.664Z,100989.06
2017-11-06T10:19:29.879Z,100992.16
2017-11-06T10:21:59.088Z,100991.95
2017-11-06T10:24:28.323Z,100990.10
2017-11-06T10:26:58.308Z,100994.22
2017-11-06T10:29:27.548Z,100987.17
2017-11-06T10:31:56.820Z,100993.97
2017-11-06T10:34:26.064Z,100988.30
2017-11-06T10:36:55.272Z,100993.62
2017-11-06T10:39:24.492Z,101000.73
2017-11-06T10:41:54.469Z,100986.45
2017-11-06T10:44:23.708Z,100996.80
2017-11-06T10:46:52.998Z,100987.76
2017-11-06T10:49:22.227Z,100990.86
2017-11-06T10:51:51.496Z,100991.90
2017-11-06T10:54:20.693Z,100985.52
2017-11-06T10:56:50.735Z,100982.03
2017-11-06T10:59:19.943Z,100986.36
2017-11-06T11:01:49.963Z,100980.66
2017-11-06T11:04:19.514Z,100985.48
2017-11-06T11:06:48.734Z,100988.47
2017-11-06T11:09:17.923Z,100985.18
2017-11-06T11:11:47.444Z,100981.39
2017-11-06T11:14:16.647Z,100982.13
2017-11-06T11:16:45.856Z,100989.52
2017-11-06T11:19:15.875Z,100988.98
2017-11-06T11:21:45.056Z,100986.27
2017-11-06T11:24:14.293Z,100990.00
2017-11-06T11:26:44.022Z,100998.42
2017-11-06T11:29:13.251Z,100996.52
2017-11-06T11:31:42.464Z,100999.73
2017-11-06T11:34:11.708Z,101000.70
2017-11-06T11:36:41.323Z,100994.94
2017-11-06T11:39:11.456Z,100998.67
2017-11-06T11:41:40.638Z,100999.36
2017-11-06T11:44:09.832Z,101001.72
2017-11-06T11:46:39.062Z,100999.37
2017-11-06T11:49:08.250Z,101004.55
2017-11-06T11:51:37.444Z,101005.64
2017-11-06T11:54:06.642Z,101004.91
2017-11-06T11:56:35.846Z,101002.56
2017-11-06T11:59:05.210Z,101010.97
2017-11-06T12:01:34.528Z,101005.05
2017-11-06T12:04:03.701Z,101013.64
2017-11-06T12:06:33.005Z,101014.27
2017-11-06T12:09:02.195Z,101011.22
2017-11-06T12:11:31.502Z,101017.61
2017-11-06T12:14:01.433Z,101017.53
2017-11-06T12:16:30.634Z,101013.23
2017-11-06T12:18:59.855Z,101021.22
2017-11-06T12:21:29.084Z,101024.75
2017-11-06T12:23:59.042Z,101026.20
2017-11-06T12:26:28.294Z,101030.05
2017-11-06T12:28:58.271Z,101031.59
2017-11-06T12:31:27.462Z,101024.53
2017-11-06T12:33:58.211Z,101031.98
2017-11-06T12:36:27.443Z,101032.83
2017-11-06T12:38:57.438Z,101037.60
2017-11-06T12:41:26.802Z,101034.92
2017-11-06T12:43:55.972Z,101033.09
2017-11-06T12:46:25.270Z,101029.87
2017-11-06T12:48:54.430Z,101027.86
2017-11-06T12:51:23.798Z,101031.91
2017-11-06T12:53:53.807Z,101034.54
2017-11-06T12:56:23.104Z,101029.14
2017-11-06T12:58:52.285Z,101036.81
2017-11-06T13:01:21.480Z,101037.44
2017-11-06T13:03:50.729Z,101038.58
2017-11-06T13:06:19.919Z,101041.66
2017-11-06T13:08:49.142Z,101048.00
2017-11-06T13:11:18.327Z,101049.50
2017-11-06T13:13:47.589Z,101042.25
2017-11-06T13:16:16.858Z,101036.99
2017-11-06T13:18:46.987Z,101039.48
2017-11-06T13:21:16.185Z,101050.18
2017-11-06T13:23:45.379Z,101062.10
2017-11-06T13:26:14.578Z,101063.81
2017-11-06T13:28:43.775Z,101062.72
2017-11-06T13:31:13.117Z,101063.63
2017-11-06T13:33:42.299Z,101065.84
2017-11-06T13:36:11.733Z,101065.42
2017-11-06T13:38:41.783Z,101065.30
2017-11-06T13:41:11.761Z,101076.44
2017-11-06T13:43:40.960Z,101081.27
2017-11-06T13:46:10.956Z,101080.98
2017-11-06T13:48:40.181Z,101076.81
2017-11-06T13:51:09.378Z,101080.89
2017-11-06T13:53:38.563Z,101083.80
2017-11-06T13:56:07.751Z,101091.95
2017-11-06T13:58:36.941Z,101086.31
2017-11-06T14:01:06.144Z,101092.77
2017-11-06T14:03:35.342Z,101096.00
2017-11-06T14:06:04.675Z,101088.37
2017-11-06T14:08:34.646Z,101094.20
2017-11-06T14:11:03.854Z,101089.12
2017-11-06T14:13:33.054Z,101093.91
2017-11-06T14:16:03.110Z,101103.36
2017-11-06T14:18:33.093Z,101097.88
2017-11-06T14:21:02.299Z,101101.22
2017-11-06T14:23:31.485Z,101109.07
2017-11-06T14:26:00.662Z,101101.76
2017-11-06T14:28:29.839Z,101101.36
2017-11-06T14:30:59.040Z,101102.05
2017-11-06T14:33:28.333Z,101104.61
2017-11-06T14:35:57.635Z,101108.78
2017-11-06T14:38:26.934Z,101106.30
2017-11-06T14:40:56.163Z,101101.19
2017-11-06T14:43:25.363Z,101108.39
2017-11-06T14:45:54.640Z,101103.61
2017-11-06T14:48:23.887Z,101114.67
2017-11-06T14:50:53.142Z,101114.27
2017-11-06T14:53:22.391Z,101109.62
2017-11-06T14:55:52.369Z,101117.02
2017-11-06T14:58:21.635Z,101113.48
2017-11-06T15:00:52.601Z,101115.89
2017-11-06T15:03:22.181Z,101123.78
2017-11-06T15:05:51.491Z,101122.30
2017-11-06T15:08:20.712Z,101116.11
2017-11-06T15:10:49.949Z,101117.63
2017-11-06T15:13:19.156Z,101119.84
2017-11-06T15:15:48.444Z,101123.38
2017-11-06T15:18:18.452Z,101129.58
2017-11-06T15:20:49.699Z,101124.97
2017-11-06T15:23:18.888Z,101130.66
2017-11-06T15:25:48.139Z,101126.38
2017-11-06T15:28:17.404Z,101128.73
2017-11-06T15:30:47.438Z,101128.09
2017-11-06T15:33:16.707Z,101128.02
2017-11-06T15:35:45.909Z,101130.33
2017-11-06T15:38:15.917Z,101130.08
2017-11-06T15:40:45.915Z,101136.15
2017-11-06T15:43:15.274Z,101135.61
2017-11-06T15:45:44.750Z,101140.68
2017-11-06T15:48:14.737Z,101140.11
2017-11-06T15:50:43.961Z,101138.81
2017-11-06T15:53:13.190Z,101131.31
2017-11-06T15:55:42.407Z,101137.11
2017-11-06T15:58:11.658Z,101137.05
2017-11-06T16:00:41.663Z,101139.11
2017-11-06T16:03:10.924Z,101146.28
2017-11-06T16:05:40.140Z,101138.63
2017-11-06T16:08:09.556Z,101140.94
2017-11-06T16:10:38.793Z,101146.75
2017-11-06T16:13:08.022Z,101142.91
2017-11-06T16:15:37.261Z,101153.36
2017-11-06T16:18:07.277Z,101150.97
2017-11-06T16:20:37.288Z,101152.19
2017-11-06T16:23:07.400Z,101154.78
2017-11-06T16:25:36.617Z,101156.24
2017-11-06T16:28:06.817Z,101150.31
2017-11-06T16:30:37.524Z,101157.95
2017-11-06T16:33:06.884Z,101163.96
2017-11-06T16:35:36.104Z,101156.00
2017-11-06T16:38:05.340Z,101158.35
2017-11-06T16:40:36.063Z,101160.98
2017-11-06T16:43:05.475Z,101159.82
2017-11-06T16:45:34.712Z,101159.70
2017-11-06T16:48:04.755Z,101165.91
2017-11-06T16:50:33.992Z,101174.00
2017-11-06T16:53:03.247Z,101174.45
2017-11-06T16:55:32.481Z,101175.57
2017-11-06T16:58:01.715Z,101178.86
2017-11-06T17:00:31.722Z,101176.59
2017-11-06T17:03:01.841Z,101176.88
2017-11-06T17:05:31.280Z,101178.23
2017-11-06T17:08:00.529Z,101177.80
2017-11-06T17:10:29.760Z,101177.26
2017-11-06T17:12:59.245Z,101179.83
2017-11-06T17:15:29.228Z,101175.64
2017-11-06T17:17:58.515Z,101181.86
2017-11-06T17:20:27.804Z,101182.98
2017-11-06T17:22:57.028Z,101192.86
2017-11-06T17:25:27.205Z,101193.00
2017-11-06T17:27:56.585Z,101186.25
2017-11-06T17:30:26.604Z,101186.95
2017-11-06T17:32:55.841Z,101187.05
2017-11-06T17:35:25.069Z,101189.36
2017-11-06T17:37:55.952Z,101187.64
2017-11-06T17:40:25.961Z,101197.11
2017-11-06T17:42:55.939Z,101194.11
2017-11-06T17:45:25.300Z,101196.83
2017-11-06T17:47:54.555Z,101195.34
2017-11-06T17:50:24.561Z,101192.52
2017-11-06T17:52:53.820Z,101194.55
2017-11-06T17:55:23.030Z,101198.46
2017-11-06T17:57:52.245Z,101200.07
2017-11-06T18:00:21.439Z,101199.55
2017-11-06T18:02:51.415Z,101201.56
2017-11-06T18:05:20.645Z,101206.03
2017-11-06T18:07:49.881Z,101206.83
2017-11-06T18:10:19.142Z,101210.61
2017-11-06T18:12:48.366Z,101205.22
2017-11-06T18:15:18.358Z,101211.41
2017-11-06T18:17:47.570Z,101219.94
2017-11-06T18:20:16.818Z,101222.07
2017-11-06T18:22:46.058Z,101227.37
2017-11-06T18:25:15.303Z,101225.86
2017-11-06T18:27:44.567Z,101220.59
2017-11-06T18:30:13.785Z,101230.85
2017-11-06T18:32:43.811Z,101222.75
2017-11-06T18:35:13.065Z,101237.72
2017-11-06T18:37:42.322Z,101231.38
2017-11-06T18:40:11.590Z,101230.96
2017-11-06T18:42:40.803Z,101225.96
2017-11-06T18:45:10.029Z,101222.44
2017-11-06T18:47:39.285Z,101231.50
2017-11-06T18:50:09.273Z,101232.33
2017-11-06T18:52:38.606Z,101233.12
2017-11-06T18:55:08.623Z,101238.40
2017-11-06T18:57:38.591Z,101231.50
2017-11-06T19:00:07.837Z,101236.38
2017-11-06T19:02:37.040Z,101242.31
2017-11-06T19:05:06.313Z,101238.10
2017-11-06T19:07:35.597Z,101249.21
2017-11-06T19:10:04.834Z,101247.98
2017-11-06T19:12:34.839Z,101253.27
2017-11-06T19:15:04.822Z,101256.91
2017-11-06T19:17:34.095Z,101252.73
2017-11-06T19:20:03.328Z,101250.17
2017-11-06T19:22:32.533Z,101252.34
2017-11-06T19:25:01.804Z,101261.39
2017-11-06T19:27:31.795Z,101255.70
2017-11-06T19:30:01.048Z,101258.56
2017-11-06T19:32:31.043Z,101271.78
2017-11-06T19:35:00.333Z,101268.67
2017-11-06T19:37:29.548Z,101268.81
2017-11-06T19:39:58.796Z,101265.98
2017-11-06T19:42:28.062Z,101272.48
2017-11-06T19:44:58.093Z,101275.29
2017-11-06T19:47:28.080Z,101277.73
2017-11-06T19:49:57.496Z,101270.83
2017-11-06T19:52:27.536Z,101275.59
2017-11-06T19:54:57.661Z,101276.53
2017-11-06T19:57:26.934Z,101283.14
2017-11-06T19:59:57.123Z,101276.12
2017-11-06T20:02:26.379Z,101274.09
2017-11-06T20:04:56.376Z,101276.94
2017-11-06T20:07:26.385Z,101286.25
2017-11-06T20:09:56.513Z,101281.91
2017-11-06T20:12:26.528Z,101285.16
2017-11-06T20:14:56.544Z,101290.16
2017-11-06T20:17:25.781Z,101289.08
2017-11-06T20:19:55.084Z,101285.70
2017-11-06T20:22:24.304Z,101294.08
2017-11-06T20:24:53.553Z,101299.89
2017-11-06T20:27:22.788Z,101296.49
2017-11-06T20:29:52.033Z,101297.72
2017-11-06T20:32:22.047Z,101300.29
2017-11-06T20:34:53.901Z,101303.38
2017-11-06T20:37:24.196Z,101297.16
2017-11-06T20:39:54.193Z,101301.75
2017-11-06T20:42:23.530Z,101303.26
2017-11-06T20:44:52.759Z,101302.03
2017-11-06T20:47:21.962Z,101298.92
2017-11-06T20:49:51.282Z,101302.59
2017-11-06T20:52:20.487Z,101311.63
2017-11-06T20:54:49.729Z,101315.28
2017-11-06T20:57:18.969Z,101310.70
2017-11-06T20:59:48.313Z,101314.05
2017-11-06T21:02:17.531Z,101317.17
2017-11-06T21:04:46.757Z,101314.33
2017-11-06T21:07:15.981Z,101315.57
2017-11-06T21:09:45.213Z,101311.64
2017-11-06T21:12:15.361Z,101312.87
2017-11-06T21:14:45.730Z,101316.09
2017-11-06T21:17:15.000Z,101319.48
2017-11-06T21:19:45.000Z,101317.16
2017-11-06T21:22:15.008Z,101311.91
2017-11-06T21:24:44.277Z,101302.86
2017-11-06T21:27:13.513Z,101307.03
2017-11-06T21:29:48.260Z,101297.18
2017-11-06T21:32:17.675Z,101301.92
2017-11-06T21:34:46.896Z,101296.93
2017-11-06T21:37:16.377Z,101298.27
2017-11-06T21:39:45.581Z,101291.92
2017-11-06T21:42:14.824Z,101297.74
2017-11-06T21:44:44.812Z,101291.80
2017-11-06T21:47:14.044Z,101292.34
2017-11-06T21:49:44.060Z,101292.73
2017-11-06T21:52:13.307Z,101297.59
2017-11-06T21:54:42.566Z,101295.72
2017-11-06T21:57:11.774Z,101290.83
2017-11-06T21:59:41.020Z,101291.37
2017-11-06T22:02:10.241Z,101292.88
2017-11-06T22:04:40.215Z,101297.30
2017-11-06T22:07:09.461Z,101302.72
2017-11-06T22:09:39.458Z,101297.19
2017-11-06T22:12:08.687Z,101294.87
2017-11-06T22:14:37.940Z,101299.74
2017-11-06T22:17:07.164Z,101294.59
2017-11-06T22:19:37.233Z,101292.44
2017-11-06T22:22:06.413Z,101286.34
2017-11-06T22:24:35.636Z,101288.75
2017-11-06T22:27:04.882Z,101284.30
2017-11-06T22:29:34.865Z,101283.75
2017-11-06T22:32:04.082Z,101277.41
2017-11-06T22:34:34.048Z,101284.55
2017-11-06T22:37:03.291Z,101281.71
2017-11-06T22:39:33.284Z,101283.30
2017-11-06T22:42:02.676Z,101285.55
2017-11-06T22:44:31.939Z,101290.00
2017-11-06T22:47:01.905Z,101294.58
2017-11-06T22:49:31.403Z,101289.99
2017-11-06T22:52:00.619Z,101289.99
2017-11-06T22:54:30.620Z,101284.59
2017-11-06T22:56:59.855Z,101284.19
2017-11-06T22:59:29.844Z,101284.89
2017-11-06T23:01:59.067Z,101283.25
2017-11-06T23:04:28.321Z,101283.22
2017-11-06T23:06:58.721Z,101283.09
2017-11-06T23:09:27.977Z,101276.31
2017-11-06T23:11:57.984Z,101276.42
2017-11-06T23:14:27.541Z,101270.22
2017-11-06T23:16:57.520Z,101269.11
2017-11-06T23:19:27.609Z,101272.59
2017-11-06T23:21:56.996Z,101271.13
2017-11-06T23:24:26.220Z,101266.92
2017-11-06T23:26:55.459Z,101265.13
2017-11-06T23:29:24.670Z,101256.23
2017-11-06T23:31:54.349Z,101265.08
2017-11-06T23:34:24.315Z,101254.44
2017-11-06T23:36:53.543Z,101249.19
2017-11-06T23:39:22.775Z,101251.08
2017-11-06T23:41:51.983Z,101254.98
2017-11-06T23:44:21.211Z,101260.50
2017-11-06T23:46:50.609Z,101258.08
2017-11-06T23:49:19.812Z,101260.77
2017-11-06T23:51:49.047Z,101262.70
2017-11-06T23:54:19.123Z,101251.75
2017-11-06T23:56:48.569Z,101255.61
2017-11-06T23:59:18.560Z,101257.48
